Open Full Screen Window  High Contrast Mode
Wind Gusting 00 knots
03
September 26, 2016 10:14 AM EDT
Weather Information
Wind Direction
  210 °
Wind Speed
  03 kt (3 mph)
Wind Gust
  00 kt (0 mph)
Altimeter
29.93 in
Visibility
10 SM
Temperature
19° C
66° F
Dewpoint
10° C
50° F
Humidity
56%
1hr Rain Fall
00.00 in.
24hr Rain Fall
00.00 in.
Sky Condition
Overcast @ 4,700 ft
VFR

METAR KPOV 261414Z AUTO 21003KT 10SM OVC047 19/10 A2993 RMK AO2 T01850096

*Background is not an actual portrayal of the airport.